sensor_id;sensor_type;location;lat;lon;timestamp;P1;durP1;ratioP1;P2;durP2;ratioP2
757;SDS011;363;48.764;9.172;2023-06-04T00:01:09;7.93;;;7.20;;
757;SDS011;363;48.764;9.172;2023-06-04T00:03:35;8.20;;;7.40;;
757;SDS011;363;48.764;9.172;2023-06-04T00:06:00;7.70;;;7.00;;
757;SDS011;363;48.764;9.172;2023-06-04T00:08:26;9.10;;;8.20;;
757;SDS011;363;48.764;9.172;2023-06-04T00:10:51;9.03;;;7.00;;
757;SDS011;363;48.764;9.172;2023-06-04T00:13:17;7.37;;;6.73;;
757;SDS011;363;48.764;9.172;2023-06-04T00:15:43;6.90;;;6.30;;
757;SDS011;363;48.764;9.172;2023-06-04T00:18:08;7.83;;;6.90;;
757;SDS011;363;48.764;9.172;2023-06-04T00:20:36;8.45;;;7.53;;
757;SDS011;363;48.764;9.172;2023-06-04T00:23:01;6.93;;;6.23;;
757;SDS011;363;48.764;9.172;2023-06-04T00:25:27;9.00;;;7.50;;
757;SDS011;363;48.764;9.172;2023-06-04T00:27:53;7.70;;;6.67;;
757;SDS011;363;48.764;9.172;2023-06-04T00:30:18;8.57;;;7.77;;
757;SDS011;363;48.764;9.172;2023-06-04T00:32:44;7.97;;;7.17;;
757;SDS011;363;48.764;9.172;2023-06-04T00:35:11;9.73;;;7.50;;
757;SDS011;363;48.764;9.172;2023-06-04T00:37:37;8.20;;;7.40;;
757;SDS011;363;48.764;9.172;2023-06-04T00:40:03;7.93;;;7.20;;
757;SDS011;363;48.764;9.172;2023-06-04T00:42:30;7.40;;;6.70;;
757;SDS011;363;48.764;9.172;2023-06-04T00:44:56;8.60;;;7.80;;
757;SDS011;363;48.764;9.172;2023-06-04T00:47:22;9.02;;;7.45;;
757;SDS011;363;48.764;9.172;2023-06-04T00:49:48;7.87;;;7.07;;
757;SDS011;363;48.764;9.172;2023-06-04T00:52:15;7.88;;;7.07;;
757;SDS011;363;48.764;9.172;2023-06-04T00:54:41;8.27;;;7.43;;
757;SDS011;363;48.764;9.172;2023-06-04T00:57:07;7.53;;;6.70;;
757;SDS011;363;48.764;9.172;2023-06-04T00:59:34;8.35;;;7.03;;
757;SDS011;363;48.764;9.172;2023-06-04T01:02:03;8.38;;;7.55;;
757;SDS011;363;48.764;9.172;2023-06-04T01:04:46;7.65;;;7.00;;
757;SDS011;363;48.764;9.172;2023-06-04T01:07:20;12.02;;;7.00;;
757;SDS011;363;48.764;9.172;2023-06-04T01:09:48;8.50;;;7.65;;
757;SDS011;363;48.764;9.172;2023-06-04T01:12:14;8.13;;;7.00;;
757;SDS011;363;48.764;9.172;2023-06-04T01:14:42;7.10;;;6.50;;
757;SDS011;363;48.764;9.172;2023-06-04T01:20:02;8.20;;;7.40;;
757;SDS011;363;48.764;9.172;2023-06-04T01:27:48;8.10;;;7.30;;
757;SDS011;363;48.764;9.172;2023-06-04T01:30:22;7.50;;;6.80;;
757;SDS011;363;48.764;9.172;2023-06-04T01:32:50;8.98;;;8.07;;
757;SDS011;363;48.764;9.172;2023-06-04T01:35:17;7.40;;;6.70;;
757;SDS011;363;48.764;9.172;2023-06-04T01:37:42;7.83;;;7.00;;
757;SDS011;363;48.764;9.172;2023-06-04T01:40:08;7.43;;;6.80;;
757;SDS011;363;48.764;9.172;2023-06-04T01:42:34;8.95;;;7.05;;
757;SDS011;363;48.764;9.172;2023-06-04T01:45:00;8.52;;;7.20;;
757;SDS011;363;48.764;9.172;2023-06-04T01:47:26;8.53;;;7.83;;
757;SDS011;363;48.764;9.172;2023-06-04T01:49:51;8.37;;;7.37;;
757;SDS011;363;48.764;9.172;2023-06-04T01:52:17;7.30;;;6.60;;
757;SDS011;363;48.764;9.172;2023-06-04T01:54:42;8.13;;;7.33;;
757;SDS011;363;48.764;9.172;2023-06-04T01:57:08;8.30;;;7.50;;
757;SDS011;363;48.764;9.172;2023-06-04T01:59:35;7.70;;;7.00;;
757;SDS011;363;48.764;9.172;2023-06-04T02:02:01;8.18;;;7.45;;
757;SDS011;363;48.764;9.172;2023-06-04T02:04:27;9.60;;;7.17;;
757;SDS011;363;48.764;9.172;2023-06-04T02:06:53;8.37;;;7.60;;
757;SDS011;363;48.764;9.172;2023-06-04T02:09:19;7.93;;;6.23;;
757;SDS011;363;48.764;9.172;2023-06-04T02:11:44;7.67;;;6.97;;
757;SDS011;363;48.764;9.172;2023-06-04T02:14:10;8.90;;;7.73;;
757;SDS011;363;48.764;9.172;2023-06-04T02:16:35;8.07;;;7.13;;
757;SDS011;363;48.764;9.172;2023-06-04T02:19:02;7.97;;;7.22;;
757;SDS011;363;48.764;9.172;2023-06-04T02:21:28;9.20;;;8.50;;
757;SDS011;363;48.764;9.172;2023-06-04T02:23:54;7.93;;;7.13;;
757;SDS011;363;48.764;9.172;2023-06-04T02:26:19;9.73;;;6.83;;
757;SDS011;363;48.764;9.172;2023-06-04T02:28:46;7.30;;;6.63;;
757;SDS011;363;48.764;9.172;2023-06-04T02:31:12;7.23;;;6.60;;
757;SDS011;363;48.764;9.172;2023-06-04T02:33:37;8.30;;;7.50;;
757;SDS011;363;48.764;9.172;2023-06-04T02:36:03;8.40;;;7.60;;
757;SDS011;363;48.764;9.172;2023-06-04T02:38:29;7.30;;;6.60;;
757;SDS011;363;48.764;9.172;2023-06-04T02:40:54;7.90;;;7.20;;
757;SDS011;363;48.764;9.172;2023-06-04T02:43:20;7.73;;;7.00;;
757;SDS011;363;48.764;9.172;2023-06-04T02:45:46;7.93;;;6.93;;
757;SDS011;363;48.764;9.172;2023-06-04T02:48:11;7.80;;;6.50;;
757;SDS011;363;48.764;9.172;2023-06-04T02:50:37;8.70;;;6.80;;
757;SDS011;363;48.764;9.172;2023-06-04T02:53:02;8.70;;;7.40;;
757;SDS011;363;48.764;9.172;2023-06-04T02:55:28;7.67;;;7.00;;
757;SDS011;363;48.764;9.172;2023-06-04T02:57:54;7.33;;;6.63;;
757;SDS011;363;48.764;9.172;2023-06-04T03:00:19;8.07;;;7.27;;
757;SDS011;363;48.764;9.172;2023-06-04T03:02:45;8.00;;;7.30;;
757;SDS011;363;48.764;9.172;2023-06-04T03:05:13;9.05;;;7.65;;
757;SDS011;363;48.764;9.172;2023-06-04T03:07:40;8.30;;;7.40;;
757;SDS011;363;48.764;9.172;2023-06-04T03:10:08;7.47;;;6.22;;
757;SDS011;363;48.764;9.172;2023-06-04T03:12:34;8.02;;;7.25;;
757;SDS011;363;48.764;9.172;2023-06-04T03:15:00;8.10;;;6.80;;
757;SDS011;363;48.764;9.172;2023-06-04T03:17:26;7.70;;;6.17;;
757;SDS011;363;48.764;9.172;2023-06-04T03:19:52;7.03;;;6.43;;
757;SDS011;363;48.764;9.172;2023-06-04T03:22:17;9.10;;;6.80;;
757;SDS011;363;48.764;9.172;2023-06-04T03:24:43;9.23;;;7.70;;
757;SDS011;363;48.764;9.172;2023-06-04T03:27:09;7.23;;;6.63;;
757;SDS011;363;48.764;9.172;2023-06-04T03:29:35;7.45;;;6.75;;
757;SDS011;363;48.764;9.172;2023-06-04T03:32:02;6.90;;;6.30;;
757;SDS011;363;48.764;9.172;2023-06-04T03:34:28;7.88;;;7.18;;
757;SDS011;363;48.764;9.172;2023-06-04T03:36:56;8.07;;;7.05;;
757;SDS011;363;48.764;9.172;2023-06-04T03:39:22;7.25;;;6.65;;
757;SDS011;363;48.764;9.172;2023-06-04T03:41:48;7.47;;;6.87;;
757;SDS011;363;48.764;9.172;2023-06-04T03:44:15;9.63;;;8.00;;
757;SDS011;363;48.764;9.172;2023-06-04T03:46:42;7.47;;;6.82;;
757;SDS011;363;48.764;9.172;2023-06-04T03:49:12;6.90;;;6.20;;
757;SDS011;363;48.764;9.172;2023-06-04T03:51:38;8.80;;;6.90;;
757;SDS011;363;48.764;9.172;2023-06-04T03:54:05;11.75;;;6.75;;
757;SDS011;363;48.764;9.172;2023-06-04T03:56:31;7.90;;;7.20;;
757;SDS011;363;48.764;9.172;2023-06-04T03:58:57;7.32;;;6.63;;
757;SDS011;363;48.764;9.172;2023-06-04T04:01:22;7.40;;;6.40;;
757;SDS011;363;48.764;9.172;2023-06-04T04:03:52;8.73;;;7.35;;
757;SDS011;363;48.764;9.172;2023-06-04T04:06:18;8.23;;;6.32;;
757;SDS011;363;48.764;9.172;2023-06-04T04:08:44;7.68;;;6.88;;
757;SDS011;363;48.764;9.172;2023-06-04T04:11:11;6.87;;;5.73;;
757;SDS011;363;48.764;9.172;2023-06-04T04:13:38;6.65;;;6.05;;
757;SDS011;363;48.764;9.172;2023-06-04T04:16:04;7.05;;;6.43;;
757;SDS011;363;48.764;9.172;2023-06-04T04:18:36;7.00;;;6.40;;
757;SDS011;363;48.764;9.172;2023-06-04T04:21:02;6.75;;;5.55;;
757;SDS011;363;48.764;9.172;2023-06-04T04:23:29;5.78;;;5.18;;
757;SDS011;363;48.764;9.172;2023-06-04T04:25:56;6.95;;;5.60;;
757;SDS011;363;48.764;9.172;2023-06-04T04:28:23;6.38;;;5.35;;
757;SDS011;363;48.764;9.172;2023-06-04T04:30:54;8.15;;;5.97;;
757;SDS011;363;48.764;9.172;2023-06-04T04:33:21;6.05;;;5.45;;
757;SDS011;363;48.764;9.172;2023-06-04T04:35:49;6.47;;;5.78;;
757;SDS011;363;48.764;9.172;2023-06-04T04:38:15;5.93;;;5.32;;
757;SDS011;363;48.764;9.172;2023-06-04T04:40:42;6.55;;;5.47;;
757;SDS011;363;48.764;9.172;2023-06-04T04:43:08;7.97;;;5.87;;
757;SDS011;363;48.764;9.172;2023-06-04T04:45:34;5.73;;;5.23;;
757;SDS011;363;48.764;9.172;2023-06-04T04:47:59;7.87;;;5.70;;
757;SDS011;363;48.764;9.172;2023-06-04T04:50:25;5.47;;;4.97;;
757;SDS011;363;48.764;9.172;2023-06-04T04:52:51;5.83;;;5.23;;
757;SDS011;363;48.764;9.172;2023-06-04T04:55:16;5.67;;;4.83;;
757;SDS011;363;48.764;9.172;2023-06-04T04:57:42;5.70;;;4.50;;
757;SDS011;363;48.764;9.172;2023-06-04T05:00:07;4.83;;;4.43;;
757;SDS011;363;48.764;9.172;2023-06-04T05:02:35;4.45;;;4.05;;
757;SDS011;363;48.764;9.172;2023-06-04T05:05:01;5.50;;;4.57;;
757;SDS011;363;48.764;9.172;2023-06-04T05:07:28;4.35;;;3.90;;
757;SDS011;363;48.764;9.172;2023-06-04T05:09:53;4.50;;;4.10;;
757;SDS011;363;48.764;9.172;2023-06-04T05:12:19;4.37;;;3.97;;
757;SDS011;363;48.764;9.172;2023-06-04T05:14:45;5.07;;;3.63;;
757;SDS011;363;48.764;9.172;2023-06-04T05:17:10;4.10;;;3.70;;
757;SDS011;363;48.764;9.172;2023-06-04T05:19:37;4.38;;;3.30;;
757;SDS011;363;48.764;9.172;2023-06-04T05:22:03;4.03;;;3.50;;
757;SDS011;363;48.764;9.172;2023-06-04T05:24:30;4.95;;;3.20;;
757;SDS011;363;48.764;9.172;2023-06-04T05:26:57;5.50;;;3.53;;
757;SDS011;363;48.764;9.172;2023-06-04T05:29:23;5.10;;;3.50;;
757;SDS011;363;48.764;9.172;2023-06-04T05:31:49;3.60;;;3.13;;
757;SDS011;363;48.764;9.172;2023-06-04T05:34:15;3.83;;;3.43;;
757;SDS011;363;48.764;9.172;2023-06-04T05:36:41;3.60;;;3.33;;
757;SDS011;363;48.764;9.172;2023-06-04T05:39:08;3.78;;;3.40;;
757;SDS011;363;48.764;9.172;2023-06-04T05:41:37;4.57;;;3.75;;
757;SDS011;363;48.764;9.172;2023-06-04T05:44:02;4.60;;;3.40;;
757;SDS011;363;48.764;9.172;2023-06-04T05:46:29;3.28;;;3.05;;
757;SDS011;363;48.764;9.172;2023-06-04T05:48:54;3.60;;;3.30;;
757;SDS011;363;48.764;9.172;2023-06-04T05:51:20;2.70;;;2.50;;
757;SDS011;363;48.764;9.172;2023-06-04T05:53:46;2.90;;;2.70;;
757;SDS011;363;48.764;9.172;2023-06-04T05:56:12;4.50;;;2.83;;
757;SDS011;363;48.764;9.172;2023-06-04T05:58:38;3.50;;;3.20;;
757;SDS011;363;48.764;9.172;2023-06-04T06:01:04;5.00;;;2.87;;
757;SDS011;363;48.764;9.172;2023-06-04T06:03:29;5.13;;;3.50;;
757;SDS011;363;48.764;9.172;2023-06-04T06:05:55;3.10;;;2.80;;
757;SDS011;363;48.764;9.172;2023-06-04T06:08:23;3.35;;;3.05;;
757;SDS011;363;48.764;9.172;2023-06-04T06:10:48;4.07;;;2.80;;
757;SDS011;363;48.764;9.172;2023-06-04T06:13:15;3.10;;;2.80;;
757;SDS011;363;48.764;9.172;2023-06-04T06:15:40;3.30;;;2.70;;
757;SDS011;363;48.764;9.172;2023-06-04T06:18:07;3.78;;;3.42;;
757;SDS011;363;48.764;9.172;2023-06-04T06:20:32;3.47;;;3.03;;
757;SDS011;363;48.764;9.172;2023-06-04T06:23:05;3.70;;;3.20;;
757;SDS011;363;48.764;9.172;2023-06-04T06:25:31;4.45;;;2.75;;
757;SDS011;363;48.764;9.172;2023-06-04T06:27:57;2.60;;;2.40;;
757;SDS011;363;48.764;9.172;2023-06-04T06:30:23;2.70;;;2.50;;
757;SDS011;363;48.764;9.172;2023-06-04T06:32:48;6.00;;;2.93;;
757;SDS011;363;48.764;9.172;2023-06-04T06:35:14;2.72;;;2.47;;
757;SDS011;363;48.764;9.172;2023-06-04T06:37:40;2.97;;;2.65;;
757;SDS011;363;48.764;9.172;2023-06-04T06:40:08;2.78;;;2.58;;
757;SDS011;363;48.764;9.172;2023-06-04T06:42:34;3.55;;;2.47;;
757;SDS011;363;48.764;9.172;2023-06-04T06:45:00;3.67;;;2.40;;
757;SDS011;363;48.764;9.172;2023-06-04T06:47:26;3.40;;;2.53;;
757;SDS011;363;48.764;9.172;2023-06-04T06:49:51;3.63;;;2.30;;
757;SDS011;363;48.764;9.172;2023-06-04T06:52:17;3.20;;;2.50;;
757;SDS011;363;48.764;9.172;2023-06-04T06:54:44;3.13;;;2.83;;
757;SDS011;363;48.764;9.172;2023-06-04T06:57:10;3.13;;;2.90;;
757;SDS011;363;48.764;9.172;2023-06-04T06:59:36;5.30;;;2.67;;
757;SDS011;363;48.764;9.172;2023-06-04T07:02:01;3.43;;;2.90;;
757;SDS011;363;48.764;9.172;2023-06-04T07:04:27;3.20;;;2.90;;
757;SDS011;363;48.764;9.172;2023-06-04T07:06:53;2.73;;;2.53;;
757;SDS011;363;48.764;9.172;2023-06-04T07:09:18;2.80;;;2.50;;
757;SDS011;363;48.764;9.172;2023-06-04T07:11:44;2.80;;;2.60;;
757;SDS011;363;48.764;9.172;2023-06-04T07:14:09;2.90;;;2.67;;
757;SDS011;363;48.764;9.172;2023-06-04T07:23:19;3.60;;;2.50;;
757;SDS011;363;48.764;9.172;2023-06-04T07:25:45;2.73;;;2.43;;
757;SDS011;363;48.764;9.172;2023-06-04T07:28:11;5.97;;;3.03;;
757;SDS011;363;48.764;9.172;2023-06-04T07:30:37;3.07;;;2.77;;
757;SDS011;363;48.764;9.172;2023-06-04T07:33:03;5.20;;;2.70;;
757;SDS011;363;48.764;9.172;2023-06-04T07:35:29;3.20;;;2.90;;
757;SDS011;363;48.764;9.172;2023-06-04T07:37:55;3.63;;;3.33;;
757;SDS011;363;48.764;9.172;2023-06-04T07:40:20;4.13;;;2.80;;
757;SDS011;363;48.764;9.172;2023-06-04T07:42:46;3.40;;;2.47;;
757;SDS011;363;48.764;9.172;2023-06-04T07:45:13;5.63;;;2.90;;
757;SDS011;363;48.764;9.172;2023-06-04T07:47:39;2.70;;;2.50;;
757;SDS011;363;48.764;9.172;2023-06-04T07:50:05;3.43;;;3.13;;
757;SDS011;363;48.764;9.172;2023-06-04T07:52:31;2.80;;;2.47;;
757;SDS011;363;48.764;9.172;2023-06-04T07:54:57;3.03;;;2.30;;
757;SDS011;363;48.764;9.172;2023-06-04T07:57:24;3.30;;;2.80;;
757;SDS011;363;48.764;9.172;2023-06-04T07:59:50;2.80;;;2.60;;
757;SDS011;363;48.764;9.172;2023-06-04T08:02:16;2.63;;;2.43;;
757;SDS011;363;48.764;9.172;2023-06-04T08:04:42;3.90;;;2.90;;
757;SDS011;363;48.764;9.172;2023-06-04T08:07:07;2.80;;;2.60;;
757;SDS011;363;48.764;9.172;2023-06-04T08:09:33;2.93;;;2.60;;
757;SDS011;363;48.764;9.172;2023-06-04T08:11:59;3.03;;;2.77;;
757;SDS011;363;48.764;9.172;2023-06-04T08:14:25;2.90;;;2.70;;
757;SDS011;363;48.764;9.172;2023-06-04T08:16:52;3.13;;;2.87;;
757;SDS011;363;48.764;9.172;2023-06-04T08:19:19;2.97;;;2.73;;
757;SDS011;363;48.764;9.172;2023-06-04T08:21:45;3.13;;;2.73;;
757;SDS011;363;48.764;9.172;2023-06-04T08:24:12;3.30;;;3.10;;
757;SDS011;363;48.764;9.172;2023-06-04T08:26:38;2.83;;;2.63;;
757;SDS011;363;48.764;9.172;2023-06-04T08:29:03;3.77;;;3.30;;
757;SDS011;363;48.764;9.172;2023-06-04T08:31:30;3.40;;;3.10;;
757;SDS011;363;48.764;9.172;2023-06-04T08:33:55;3.50;;;2.50;;
757;SDS011;363;48.764;9.172;2023-06-04T08:36:21;3.70;;;3.10;;
757;SDS011;363;48.764;9.172;2023-06-04T08:38:47;4.70;;;3.00;;
757;SDS011;363;48.764;9.172;2023-06-04T08:41:23;3.10;;;2.80;;
757;SDS011;363;48.764;9.172;2023-06-04T08:44:01;3.30;;;3.00;;
757;SDS011;363;48.764;9.172;2023-06-04T08:46:32;3.57;;;2.97;;
757;SDS011;363;48.764;9.172;2023-06-04T08:49:01;4.90;;;2.97;;
757;SDS011;363;48.764;9.172;2023-06-04T08:51:28;3.30;;;3.00;;
757;SDS011;363;48.764;9.172;2023-06-04T08:53:57;3.00;;;2.80;;
757;SDS011;363;48.764;9.172;2023-06-04T08:56:24;3.07;;;2.80;;
757;SDS011;363;48.764;9.172;2023-06-04T08:58:51;3.03;;;2.83;;
757;SDS011;363;48.764;9.172;2023-06-04T09:01:17;3.27;;;3.07;;
757;SDS011;363;48.764;9.172;2023-06-04T09:03:43;3.47;;;3.23;;
757;SDS011;363;48.764;9.172;2023-06-04T09:06:09;3.47;;;2.90;;
757;SDS011;363;48.764;9.172;2023-06-04T09:08:35;3.33;;;3.10;;
757;SDS011;363;48.764;9.172;2023-06-04T09:11:04;3.30;;;3.00;;
757;SDS011;363;48.764;9.172;2023-06-04T09:13:33;4.70;;;3.23;;
757;SDS011;363;48.764;9.172;2023-06-04T09:16:03;4.07;;;3.23;;
757;SDS011;363;48.764;9.172;2023-06-04T09:18:31;4.13;;;3.23;;
757;SDS011;363;48.764;9.172;2023-06-04T09:21:00;3.27;;;2.97;;
757;SDS011;363;48.764;9.172;2023-06-04T09:23:26;3.40;;;3.03;;
757;SDS011;363;48.764;9.172;2023-06-04T09:25:53;3.60;;;3.30;;
757;SDS011;363;48.764;9.172;2023-06-04T09:28:19;3.50;;;3.20;;
757;SDS011;363;48.764;9.172;2023-06-04T09:30:54;4.57;;;2.77;;
757;SDS011;363;48.764;9.172;2023-06-04T09:33:20;3.03;;;2.83;;
757;SDS011;363;48.764;9.172;2023-06-04T09:35:55;5.73;;;3.30;;
757;SDS011;363;48.764;9.172;2023-06-04T09:38:22;3.33;;;3.00;;
757;SDS011;363;48.764;9.172;2023-06-04T09:40:47;4.23;;;3.63;;
757;SDS011;363;48.764;9.172;2023-06-04T09:43:23;3.33;;;3.03;;
757;SDS011;363;48.764;9.172;2023-06-04T09:45:49;4.70;;;3.20;;
757;SDS011;363;48.764;9.172;2023-06-04T09:48:21;4.50;;;3.03;;
757;SDS011;363;48.764;9.172;2023-06-04T09:50:47;3.20;;;2.83;;
757;SDS011;363;48.764;9.172;2023-06-04T09:53:20;3.17;;;2.97;;
757;SDS011;363;48.764;9.172;2023-06-04T09:56:01;4.43;;;3.43;;
757;SDS011;363;48.764;9.172;2023-06-04T09:58:29;4.30;;;3.90;;
757;SDS011;363;48.764;9.172;2023-06-04T10:00:55;3.40;;;3.07;;
757;SDS011;363;48.764;9.172;2023-06-04T10:03:29;4.43;;;3.53;;
757;SDS011;363;48.764;9.172;2023-06-04T10:06:05;3.93;;;3.63;;
757;SDS011;363;48.764;9.172;2023-06-04T10:08:32;3.67;;;3.37;;
757;SDS011;363;48.764;9.172;2023-06-04T10:11:00;3.93;;;3.63;;
757;SDS011;363;48.764;9.172;2023-06-04T10:13:31;3.87;;;3.33;;
757;SDS011;363;48.764;9.172;2023-06-04T10:16:05;3.57;;;3.30;;
757;SDS011;363;48.764;9.172;2023-06-04T10:18:32;3.60;;;3.27;;
757;SDS011;363;48.764;9.172;2023-06-04T10:20:59;12.10;;;4.10;;
757;SDS011;363;48.764;9.172;2023-06-04T10:23:25;3.70;;;3.40;;
757;SDS011;363;48.764;9.172;2023-06-04T10:25:51;4.23;;;3.83;;
757;SDS011;363;48.764;9.172;2023-06-04T10:28:19;5.00;;;4.00;;
757;SDS011;363;48.764;9.172;2023-06-04T10:30:46;4.60;;;4.20;;
757;SDS011;363;48.764;9.172;2023-06-04T10:33:15;4.23;;;3.97;;
757;SDS011;363;48.764;9.172;2023-06-04T10:35:49;4.00;;;3.70;;
757;SDS011;363;48.764;9.172;2023-06-04T10:38:19;4.03;;;3.73;;
757;SDS011;363;48.764;9.172;2023-06-04T10:40:46;4.17;;;3.77;;
757;SDS011;363;48.764;9.172;2023-06-04T10:43:13;4.17;;;3.77;;
757;SDS011;363;48.764;9.172;2023-06-04T10:45:41;5.77;;;4.67;;
757;SDS011;363;48.764;9.172;2023-06-04T10:48:07;5.27;;;3.87;;
757;SDS011;363;48.764;9.172;2023-06-04T10:50:35;4.17;;;3.83;;
757;SDS011;363;48.764;9.172;2023-06-04T10:53:12;4.90;;;4.50;;
757;SDS011;363;48.764;9.172;2023-06-04T10:55:44;4.53;;;3.97;;
757;SDS011;363;48.764;9.172;2023-06-04T10:58:14;4.83;;;3.60;;
757;SDS011;363;48.764;9.172;2023-06-04T11:00:41;4.57;;;3.57;;
757;SDS011;363;48.764;9.172;2023-06-04T11:03:09;4.63;;;3.63;;
757;SDS011;363;48.764;9.172;2023-06-04T11:05:36;4.20;;;3.80;;
757;SDS011;363;48.764;9.172;2023-06-04T11:08:04;4.40;;;3.70;;
757;SDS011;363;48.764;9.172;2023-06-04T11:10:34;3.73;;;3.43;;
757;SDS011;363;48.764;9.172;2023-06-04T11:13:01;3.67;;;3.17;;
757;SDS011;363;48.764;9.172;2023-06-04T11:18:06;6.93;;;4.20;;
757;SDS011;363;48.764;9.172;2023-06-04T11:20:32;3.80;;;3.60;;
757;SDS011;363;48.764;9.172;2023-06-04T11:22:58;4.00;;;3.60;;
757;SDS011;363;48.764;9.172;2023-06-04T11:25:25;4.50;;;3.43;;
757;SDS011;363;48.764;9.172;2023-06-04T11:27:52;4.70;;;4.30;;
757;SDS011;363;48.764;9.172;2023-06-04T11:30:18;4.47;;;4.13;;
757;SDS011;363;48.764;9.172;2023-06-04T11:32:45;5.30;;;4.80;;
757;SDS011;363;48.764;9.172;2023-06-04T11:35:11;3.90;;;3.60;;
757;SDS011;363;48.764;9.172;2023-06-04T11:37:36;6.33;;;4.47;;
757;SDS011;363;48.764;9.172;2023-06-04T11:40:03;3.77;;;3.47;;
757;SDS011;363;48.764;9.172;2023-06-04T11:42:42;5.47;;;3.90;;
757;SDS011;363;48.764;9.172;2023-06-04T11:45:09;4.63;;;4.03;;
757;SDS011;363;48.764;9.172;2023-06-04T11:47:54;5.83;;;4.10;;
757;SDS011;363;48.764;9.172;2023-06-04T11:50:21;4.50;;;4.10;;
757;SDS011;363;48.764;9.172;2023-06-04T11:52:47;4.53;;;4.10;;
757;SDS011;363;48.764;9.172;2023-06-04T11:55:14;4.53;;;4.13;;
757;SDS011;363;48.764;9.172;2023-06-04T11:57:42;4.33;;;3.90;;
757;SDS011;363;48.764;9.172;2023-06-04T12:00:09;4.80;;;4.40;;
757;SDS011;363;48.764;9.172;2023-06-04T12:02:39;5.37;;;4.40;;
757;SDS011;363;48.764;9.172;2023-06-04T12:05:19;4.70;;;4.30;;
757;SDS011;363;48.764;9.172;2023-06-04T12:07:48;6.10;;;4.60;;
757;SDS011;363;48.764;9.172;2023-06-04T12:10:16;3.97;;;3.63;;
757;SDS011;363;48.764;9.172;2023-06-04T12:12:42;4.10;;;3.80;;
757;SDS011;363;48.764;9.172;2023-06-04T12:15:08;4.60;;;4.07;;
757;SDS011;363;48.764;9.172;2023-06-04T12:17:35;5.10;;;4.60;;
757;SDS011;363;48.764;9.172;2023-06-04T12:20:02;4.80;;;4.30;;
757;SDS011;363;48.764;9.172;2023-06-04T12:22:30;5.80;;;4.00;;
757;SDS011;363;48.764;9.172;2023-06-04T12:24:57;5.50;;;3.90;;
757;SDS011;363;48.764;9.172;2023-06-04T12:27:27;4.53;;;4.17;;
757;SDS011;363;48.764;9.172;2023-06-04T12:32:23;5.47;;;4.80;;
757;SDS011;363;48.764;9.172;2023-06-04T12:34:48;5.27;;;4.03;;
757;SDS011;363;48.764;9.172;2023-06-04T12:37:14;5.93;;;4.80;;
757;SDS011;363;48.764;9.172;2023-06-04T12:39:40;5.37;;;4.47;;
757;SDS011;363;48.764;9.172;2023-06-04T12:42:06;4.70;;;4.30;;
757;SDS011;363;48.764;9.172;2023-06-04T12:44:34;4.03;;;3.63;;
757;SDS011;363;48.764;9.172;2023-06-04T12:47:01;5.30;;;4.60;;
757;SDS011;363;48.764;9.172;2023-06-04T12:49:27;5.37;;;4.30;;
757;SDS011;363;48.764;9.172;2023-06-04T12:51:52;4.57;;;4.10;;
757;SDS011;363;48.764;9.172;2023-06-04T12:54:18;4.53;;;4.23;;
757;SDS011;363;48.764;9.172;2023-06-04T12:56:43;5.43;;;3.77;;
757;SDS011;363;48.764;9.172;2023-06-04T12:59:09;3.97;;;3.57;;
757;SDS011;363;48.764;9.172;2023-06-04T13:01:35;4.93;;;4.40;;
757;SDS011;363;48.764;9.172;2023-06-04T13:04:02;4.40;;;4.00;;
757;SDS011;363;48.764;9.172;2023-06-04T13:06:28;5.30;;;4.20;;
757;SDS011;363;48.764;9.172;2023-06-04T13:08:54;4.70;;;3.97;;
757;SDS011;363;48.764;9.172;2023-06-04T13:11:20;5.00;;;3.80;;
757;SDS011;363;48.764;9.172;2023-06-04T13:13:46;4.77;;;4.37;;
757;SDS011;363;48.764;9.172;2023-06-04T13:16:12;4.17;;;3.87;;
757;SDS011;363;48.764;9.172;2023-06-04T13:18:38;5.20;;;4.70;;
757;SDS011;363;48.764;9.172;2023-06-04T13:21:04;4.03;;;3.73;;
757;SDS011;363;48.764;9.172;2023-06-04T13:23:29;4.43;;;4.03;;
757;SDS011;363;48.764;9.172;2023-06-04T13:25:55;4.07;;;3.63;;
757;SDS011;363;48.764;9.172;2023-06-04T13:28:21;4.67;;;4.23;;
757;SDS011;363;48.764;9.172;2023-06-04T13:30:47;7.70;;;4.40;;
757;SDS011;363;48.764;9.172;2023-06-04T13:33:13;4.37;;;3.97;;
757;SDS011;363;48.764;9.172;2023-06-04T13:35:39;4.63;;;4.23;;
757;SDS011;363;48.764;9.172;2023-06-04T13:38:05;6.63;;;4.37;;
757;SDS011;363;48.764;9.172;2023-06-04T13:40:31;4.83;;;4.33;;
757;SDS011;363;48.764;9.172;2023-06-04T13:43:00;4.27;;;3.87;;
757;SDS011;363;48.764;9.172;2023-06-04T13:45:26;4.77;;;4.37;;
757;SDS011;363;48.764;9.172;2023-06-04T13:47:52;4.90;;;4.50;;
757;SDS011;363;48.764;9.172;2023-06-04T13:50:17;4.90;;;4.10;;
757;SDS011;363;48.764;9.172;2023-06-04T13:52:43;4.37;;;3.97;;
757;SDS011;363;48.764;9.172;2023-06-04T13:55:08;4.33;;;3.93;;
757;SDS011;363;48.764;9.172;2023-06-04T13:57:34;6.80;;;4.10;;
757;SDS011;363;48.764;9.172;2023-06-04T14:00:00;4.50;;;3.97;;
757;SDS011;363;48.764;9.172;2023-06-04T14:02:26;4.60;;;4.20;;
757;SDS011;363;48.764;9.172;2023-06-04T14:04:52;4.80;;;3.97;;
757;SDS011;363;48.764;9.172;2023-06-04T14:07:18;6.90;;;4.17;;
757;SDS011;363;48.764;9.172;2023-06-04T14:09:44;4.13;;;3.73;;
757;SDS011;363;48.764;9.172;2023-06-04T14:12:10;4.03;;;3.73;;
757;SDS011;363;48.764;9.172;2023-06-04T14:14:36;4.47;;;4.00;;
757;SDS011;363;48.764;9.172;2023-06-04T14:17:02;4.63;;;4.23;;
757;SDS011;363;48.764;9.172;2023-06-04T14:19:28;4.73;;;4.23;;
757;SDS011;363;48.764;9.172;2023-06-04T14:21:54;4.43;;;4.03;;
757;SDS011;363;48.764;9.172;2023-06-04T14:24:20;4.93;;;4.43;;
757;SDS011;363;48.764;9.172;2023-06-04T14:26:45;5.00;;;4.30;;
757;SDS011;363;48.764;9.172;2023-06-04T14:29:11;5.13;;;4.63;;
757;SDS011;363;48.764;9.172;2023-06-04T14:31:38;4.03;;;3.70;;
757;SDS011;363;48.764;9.172;2023-06-04T14:34:03;4.10;;;3.70;;
757;SDS011;363;48.764;9.172;2023-06-04T14:36:29;3.67;;;3.37;;
757;SDS011;363;48.764;9.172;2023-06-04T14:38:56;4.00;;;3.57;;
757;SDS011;363;48.764;9.172;2023-06-04T14:41:21;3.83;;;3.53;;
757;SDS011;363;48.764;9.172;2023-06-04T14:43:47;4.07;;;3.67;;
757;SDS011;363;48.764;9.172;2023-06-04T14:46:13;3.67;;;3.37;;
757;SDS011;363;48.764;9.172;2023-06-04T14:48:38;5.03;;;4.17;;
757;SDS011;363;48.764;9.172;2023-06-04T14:51:04;5.10;;;4.20;;
757;SDS011;363;48.764;9.172;2023-06-04T14:53:30;3.97;;;3.60;;
757;SDS011;363;48.764;9.172;2023-06-04T14:55:55;4.80;;;4.40;;
757;SDS011;363;48.764;9.172;2023-06-04T14:58:21;4.10;;;3.67;;
757;SDS011;363;48.764;9.172;2023-06-04T15:00:47;4.57;;;4.17;;
757;SDS011;363;48.764;9.172;2023-06-04T15:03:12;4.17;;;3.77;;
757;SDS011;363;48.764;9.172;2023-06-04T15:05:38;4.83;;;4.10;;
757;SDS011;363;48.764;9.172;2023-06-04T15:08:03;4.40;;;4.00;;
757;SDS011;363;48.764;9.172;2023-06-04T15:10:29;4.07;;;3.53;;
757;SDS011;363;48.764;9.172;2023-06-04T15:12:55;3.60;;;3.30;;
757;SDS011;363;48.764;9.172;2023-06-04T15:15:22;4.80;;;4.30;;
757;SDS011;363;48.764;9.172;2023-06-04T15:17:48;4.90;;;4.50;;
757;SDS011;363;48.764;9.172;2023-06-04T15:20:14;4.00;;;3.70;;
757;SDS011;363;48.764;9.172;2023-06-04T15:22:40;4.43;;;4.03;;
757;SDS011;363;48.764;9.172;2023-06-04T15:25:06;4.43;;;3.67;;
757;SDS011;363;48.764;9.172;2023-06-04T15:27:32;4.40;;;4.10;;
757;SDS011;363;48.764;9.172;2023-06-04T15:29:58;4.53;;;4.10;;
757;SDS011;363;48.764;9.172;2023-06-04T15:32:24;5.43;;;4.07;;
757;SDS011;363;48.764;9.172;2023-06-04T15:34:49;4.10;;;3.80;;
757;SDS011;363;48.764;9.172;2023-06-04T15:37:15;3.33;;;3.07;;
757;SDS011;363;48.764;9.172;2023-06-04T15:39:41;5.40;;;4.90;;
757;SDS011;363;48.764;9.172;2023-06-04T15:42:07;3.60;;;3.30;;
757;SDS011;363;48.764;9.172;2023-06-04T15:44:32;4.30;;;3.90;;
757;SDS011;363;48.764;9.172;2023-06-04T15:46:59;4.00;;;3.70;;
757;SDS011;363;48.764;9.172;2023-06-04T15:49:25;5.40;;;4.17;;
757;SDS011;363;48.764;9.172;2023-06-04T15:51:50;5.00;;;4.50;;
757;SDS011;363;48.764;9.172;2023-06-04T15:54:16;5.23;;;3.87;;
757;SDS011;363;48.764;9.172;2023-06-04T15:56:41;4.70;;;4.30;;
757;SDS011;363;48.764;9.172;2023-06-04T15:59:07;3.97;;;3.67;;
757;SDS011;363;48.764;9.172;2023-06-04T16:01:33;4.47;;;4.07;;